Time;durP1;ratioP1;P1;durP2;ratioP2;P2;SDS_P1;SDS_P2;PMS_P1;PMS_P2;Temp;Humidity;BMP_temperature;BMP_pressure;BME280_temperature;BME280_humidity;BME280_pressure;Samples;Min_cycle;Max_cycle;Signal;HPM_P1;HPM_P2
2022/06/08 00:02:10;;;;;;;9.88;5.65;;;13.50;99.90;;;;;;4996389;28;20503;-47
2022/06/08 00:04:36;;;;;;;11.10;5.93;;;13.50;99.90;;;;;;4989791;28;20503;-48
2022/06/08 00:07:03;;;;;;;8.82;5.45;;;13.50;99.90;;;;;;4993998;28;20532;-49
2022/06/08 00:09:29;;;;;;;9.57;5.70;;;13.50;99.90;;;;;;4990420;28;20113;-45
2022/06/08 00:11:54;;;;;;;8.93;5.43;;;13.50;99.90;;;;;;4992177;28;20042;-47
2022/06/08 00:14:20;;;;;;;8.43;5.30;;;13.50;99.90;;;;;;4985697;28;20050;-48
2022/06/08 00:16:46;;;;;;;9.15;5.88;;;13.50;99.90;;;;;;4991660;28;20057;-44
2022/06/08 00:19:12;;;;;;;9.75;5.88;;;13.50;99.90;;;;;;4990911;28;20129;-50
2022/06/08 00:21:37;;;;;;;9.68;6.20;;;13.50;99.90;;;;;;4989058;28;20045;-50
2022/06/08 00:24:03;;;;;;;9.13;4.97;;;13.60;99.90;;;;;;4991577;28;20046;-48
2022/06/08 00:26:29;;;;;;;9.68;5.95;;;13.60;99.90;;;;;;4986529;28;20038;-45
2022/06/08 00:28:55;;;;;;;8.75;5.93;;;13.60;99.90;;;;;;4989132;28;20364;-51
2022/06/08 00:31:21;;;;;;;7.28;5.10;;;13.70;99.90;;;;;;4990391;28;20046;-51
2022/06/08 00:33:48;;;;;;;10.95;5.97;;;13.70;99.90;;;;;;4989641;28;20070;-47
2022/06/08 00:36:14;;;;;;;7.95;5.15;;;13.70;99.90;;;;;;4989228;28;20042;-44
2022/06/08 00:38:39;;;;;;;11.23;5.40;;;13.70;99.90;;;;;;4990779;28;20104;-49
2022/06/08 00:41:14;;;;;;;7.60;4.80;;;13.70;99.90;;;;;;4994001;28;20050;-49
2022/06/08 00:43:40;;;;;;;10.20;5.65;;;13.80;99.90;;;;;;4991721;28;20042;-48
2022/06/08 00:46:08;;;;;;;8.20;5.50;;;13.70;99.90;;;;;;4992162;28;20046;-48
2022/06/08 00:48:38;;;;;;;10.00;5.72;;;13.80;99.90;;;;;;4993255;28;20034;-49
2022/06/08 00:51:04;;;;;;;10.32;5.32;;;13.80;99.90;;;;;;4989937;28;20054;-48
2022/06/08 00:53:38;;;;;;;9.00;5.72;;;13.80;99.90;;;;;;4990041;28;20503;-47
2022/06/08 00:56:06;;;;;;;7.25;5.22;;;13.90;99.90;;;;;;4992688;28;20065;-46
2022/06/08 00:58:33;;;;;;;8.30;5.00;;;13.80;99.90;;;;;;4986466;28;20318;-48
2022/06/08 01:01:00;;;;;;;10.43;5.57;;;13.80;99.90;;;;;;4974510;28;20046;-46
2022/06/08 01:03:27;;;;;;;9.02;5.60;;;13.80;99.90;;;;;;4988360;28;20042;-46
2022/06/08 01:05:57;;;;;;;8.63;5.53;;;13.80;99.90;;;;;;4989878;28;20476;-44
2022/06/08 01:08:28;;;;;;;9.50;5.95;;;13.80;99.90;;;;;;4987834;28;20109;-44
2022/06/08 01:10:57;;;;;;;10.02;5.90;;;13.80;99.90;;;;;;4996297;28;20041;-43
2022/06/08 01:13:23;;;;;;;7.22;4.85;;;13.90;99.90;;;;;;4985339;28;20125;-49
2022/06/08 01:15:50;;;;;;;9.60;5.43;;;13.90;99.90;;;;;;4985856;28;20137;-45
2022/06/08 01:18:16;;;;;;;9.73;5.88;;;13.90;99.90;;;;;;4987577;28;20042;-49
2022/06/08 01:20:52;;;;;;;7.65;5.40;;;13.90;99.90;;;;;;4996157;28;20474;-46
2022/06/08 01:23:18;;;;;;;9.38;5.63;;;13.90;99.90;;;;;;4988976;28;20042;-50
2022/06/08 01:25:58;;;;;;;9.50;5.80;;;13.90;99.90;;;;;;4989638;28;20141;-43
2022/06/08 01:28:55;;;;;;;10.32;5.53;;;13.90;99.90;;;;;;4984921;28;20039;-48
2022/06/08 01:31:34;;;;;;;10.10;5.47;;;13.90;99.90;;;;;;4963185;28;20112;-51
2022/06/08 01:34:32;;;;;;;7.57;5.10;;;13.80;99.90;;;;;;4987340;28;20050;-49
2022/06/08 01:37:25;;;;;;;8.93;5.18;;;13.80;99.90;;;;;;4977102;28;20506;-48
2022/06/08 01:40:02;;;;;;;9.23;5.70;;;13.80;99.90;;;;;;4985255;28;20070;-49
2022/06/08 01:42:37;;;;;;;8.60;5.38;;;13.80;99.90;;;;;;4987360;28;20562;-49
2022/06/08 01:48:18;;;;;;;10.15;6.43;;;13.80;99.90;;;;;;4989577;28;20079;-45
2022/06/08 01:51:17;;;;;;;9.13;5.57;;;13.70;99.90;;;;;;4986673;28;20045;-47
2022/06/08 01:53:55;;;;;;;8.05;4.97;;;13.80;99.90;;;;;;4988800;28;20034;-46
2022/06/08 01:56:53;;;;;;;10.52;5.72;;;13.70;99.90;;;;;;5001749;28;20049;-49
2022/06/08 01:59:19;;;;;;;9.60;6.00;;;13.80;99.90;;;;;;4979854;28;20108;-49
2022/06/08 02:01:44;;;;;;;7.75;5.55;;;13.80;99.90;;;;;;4990962;28;20042;-49
2022/06/08 02:04:25;;;;;;;7.53;5.25;;;13.80;99.90;;;;;;4989822;28;20161;-45
2022/06/08 02:07:32;;;;;;;10.88;6.30;;;13.80;99.90;;;;;;4991528;28;20068;-48
2022/06/08 02:10:18;;;;;;;9.85;5.90;;;13.80;99.90;;;;;;4979062;28;20050;-48
2022/06/08 02:12:50;;;;;;;11.27;6.45;;;13.80;99.90;;;;;;4993608;28;20054;-49
2022/06/08 02:15:21;;;;;;;10.73;5.47;;;13.70;99.90;;;;;;4988944;28;20455;-45
2022/06/08 02:17:54;;;;;;;10.57;6.28;;;13.70;99.90;;;;;;4988478;28;20094;-45
2022/06/08 02:20:27;;;;;;;9.48;6.10;;;13.70;99.90;;;;;;4993897;28;20039;-45
2022/06/08 02:23:03;;;;;;;9.38;6.07;;;13.80;99.90;;;;;;4990526;28;20074;-48
2022/06/08 02:26:03;;;;;;;12.30;6.75;;;13.80;99.90;;;;;;4989055;28;20109;-52
2022/06/08 02:28:38;;;;;;;10.70;6.53;;;13.80;99.90;;;;;;4984830;28;20045;-48
2022/06/08 02:31:18;;;;;;;11.45;6.60;;;13.70;99.90;;;;;;4988848;28;20118;-49
2022/06/08 02:36:54;;;;;;;11.30;7.05;;;13.70;99.90;;;;;;4988146;28;20046;-48
2022/06/08 02:39:47;;;;;;;12.20;7.07;;;13.80;99.90;;;;;;4987672;28;20038;-48
2022/06/08 02:42:26;;;;;;;10.55;6.40;;;13.80;99.90;;;;;;4989205;28;20049;-44
2022/06/08 02:45:01;;;;;;;15.10;7.00;;;13.80;99.90;;;;;;4993223;28;20034;-46
2022/06/08 02:47:33;;;;;;;11.98;6.78;;;13.80;99.90;;;;;;4990832;28;20480;-50
2022/06/08 02:50:09;;;;;;;12.30;7.00;;;13.80;99.90;;;;;;4996511;28;20049;-45
2022/06/08 02:52:36;;;;;;;13.65;7.32;;;13.90;99.90;;;;;;4991041;28;20042;-49
2022/06/08 02:55:11;;;;;;;11.25;7.07;;;13.90;99.90;;;;;;4993094;28;20042;-47
2022/06/08 02:57:53;;;;;;;12.48;6.50;;;13.90;99.90;;;;;;4989589;28;20429;-45
2022/06/08 03:00:26;;;;;;;12.73;7.43;;;13.90;99.90;;;;;;4992586;28;20126;-45
2022/06/08 03:03:04;;;;;;;11.73;7.03;;;13.90;99.90;;;;;;4992188;28;20117;-47
2022/06/08 03:05:55;;;;;;;10.57;6.95;;;13.90;99.90;;;;;;4989840;28;20072;-47
2022/06/08 03:08:47;;;;;;;11.85;6.90;;;13.90;99.90;;;;;;4993799;28;20084;-50
2022/06/08 03:11:15;;;;;;;10.25;6.93;;;13.90;99.90;;;;;;4989204;28;20093;-46
2022/06/08 03:13:54;;;;;;;11.55;7.15;;;13.90;99.90;;;;;;4989607;28;20180;-48
2022/06/08 03:16:29;;;;;;;10.93;6.85;;;13.90;99.90;;;;;;4990693;28;20142;-45
2022/06/08 03:18:55;;;;;;;13.02;7.30;;;13.90;99.90;;;;;;4986776;28;20484;-48
2022/06/08 03:21:21;;;;;;;17.48;8.45;;;13.90;99.90;;;;;;4994963;28;20053;-43
2022/06/08 03:23:49;;;;;;;12.60;7.47;;;14.00;99.90;;;;;;4990343;28;20100;-47
2022/06/08 03:26:16;;;;;;;14.80;7.43;;;14.00;99.90;;;;;;4993860;28;20070;-46
2022/06/08 03:28:42;;;;;;;11.60;7.80;;;14.00;99.90;;;;;;4992263;28;20064;-49
2022/06/08 03:31:08;;;;;;;14.00;7.80;;;14.00;99.90;;;;;;4990237;28;20036;-46
2022/06/08 03:33:34;;;;;;;11.68;7.55;;;14.00;99.90;;;;;;4992491;28;20093;-50
2022/06/08 03:35:59;;;;;;;13.93;7.28;;;14.00;99.90;;;;;;4993192;28;20129;-44
2022/06/08 03:38:25;;;;;;;14.80;8.52;;;14.00;99.90;;;;;;4988845;28;20073;-48
2022/06/08 03:40:51;;;;;;;12.85;8.57;;;14.00;99.90;;;;;;4995502;28;20042;-47
2022/06/08 03:43:17;;;;;;;12.55;8.57;;;14.00;99.90;;;;;;4992079;28;20077;-50
2022/06/08 03:45:46;;;;;;;13.55;8.00;;;13.90;99.90;;;;;;4990623;28;20038;-46
2022/06/08 03:48:13;;;;;;;13.63;7.80;;;13.90;99.90;;;;;;4990455;28;20125;-47
2022/06/08 03:50:43;;;;;;;15.25;8.85;;;13.90;99.90;;;;;;4994915;28;20456;-49
2022/06/08 03:53:18;;;;;;;14.73;9.40;;;13.90;99.90;;;;;;4987374;28;20057;-49
2022/06/08 03:55:45;;;;;;;12.30;8.60;;;13.80;99.90;;;;;;4993444;28;20212;-49
2022/06/08 03:58:11;;;;;;;13.60;8.35;;;13.80;99.90;;;;;;4992813;28;20045;-50
2022/06/08 04:00:37;;;;;;;12.02;8.40;;;13.80;99.90;;;;;;4990414;28;20061;-47
2022/06/08 04:03:05;;;;;;;12.45;7.80;;;13.70;99.90;;;;;;4997654;28;20394;-48
2022/06/08 04:05:31;;;;;;;15.85;9.65;;;13.70;99.90;;;;;;4993604;28;20097;-48
2022/06/08 04:07:56;;;;;;;13.65;8.18;;;13.70;99.90;;;;;;4989407;28;20030;-49
2022/06/08 04:10:24;;;;;;;13.57;8.45;;;13.80;99.90;;;;;;4989411;28;20403;-46
2022/06/08 04:12:49;;;;;;;14.82;8.20;;;13.80;99.90;;;;;;4993703;28;20046;-47
2022/06/08 04:15:41;;;;;;;12.00;8.38;;;13.90;99.90;;;;;;4989961;28;20069;-46
2022/06/08 04:18:01;;;;;;;15.35;9.15;;;13.90;99.90;;;;;;4986864;28;20053;-49
2022/06/08 04:20:30;;;;;;;12.55;8.52;;;14.00;99.90;;;;;;4989736;28;20041;-49
2022/06/08 04:22:55;;;;;;;14.85;9.63;;;14.00;99.90;;;;;;4992174;28;20038;-53
2022/06/08 04:25:21;;;;;;;16.48;8.95;;;14.00;99.90;;;;;;4991478;28;20042;-48
2022/06/08 04:27:47;;;;;;;13.32;8.93;;;14.00;99.90;;;;;;4988787;28;20117;-50
2022/06/08 04:30:13;;;;;;;13.00;7.93;;;14.10;99.90;;;;;;4995971;28;20034;-49
2022/06/08 04:32:38;;;;;;;14.60;9.65;;;14.10;99.90;;;;;;4989869;28;20398;-44
2022/06/08 04:35:05;;;;;;;13.10;8.70;;;14.10;99.90;;;;;;4991174;28;20038;-49
2022/06/08 04:37:30;;;;;;;15.55;8.50;;;14.10;99.90;;;;;;4988415;28;20058;-43
2022/06/08 04:39:56;;;;;;;14.57;8.82;;;14.10;99.90;;;;;;4988683;28;20400;-49
2022/06/08 04:42:22;;;;;;;12.52;8.57;;;14.10;99.90;;;;;;4989406;28;20421;-49
2022/06/08 04:44:47;;;;;;;12.52;8.40;;;14.20;99.90;;;;;;4988240;28;20438;-49
2022/06/08 04:47:13;;;;;;;15.07;8.45;;;14.20;99.90;;;;;;4984736;28;20542;-45
2022/06/08 04:49:39;;;;;;;14.77;9.35;;;14.30;99.90;;;;;;4988583;28;20061;-47
2022/06/08 04:52:06;;;;;;;14.70;9.23;;;14.40;99.90;;;;;;4988295;28;20052;-50
2022/06/08 04:54:32;;;;;;;14.73;9.00;;;14.50;99.90;;;;;;4987381;28;20158;-47
2022/06/08 04:57:00;;;;;;;13.27;7.85;;;14.60;99.90;;;;;;4987790;28;20162;-45
2022/06/08 04:59:26;;;;;;;11.63;7.50;;;14.60;99.90;;;;;;4991281;28;20038;-48
2022/06/08 05:01:51;;;;;;;13.10;8.80;;;14.70;99.90;;;;;;4986367;28;20415;-49
2022/06/08 05:04:17;;;;;;;15.15;8.00;;;14.80;99.90;;;;;;4991948;28;20637;-48
2022/06/08 05:06:43;;;;;;;15.95;8.45;;;14.80;99.90;;;;;;4990710;28;20035;-49
2022/06/08 05:09:08;;;;;;;9.95;7.40;;;14.80;99.90;;;;;;4971840;28;20045;-47
2022/06/08 05:11:34;;;;;;;14.40;8.40;;;14.90;99.90;;;;;;4989946;28;20046;-46
2022/06/08 05:14:00;;;;;;;12.98;7.97;;;14.90;99.90;;;;;;4990027;28;20046;-45
2022/06/08 05:16:25;;;;;;;13.43;8.38;;;14.90;99.90;;;;;;4988714;28;20050;-49
2022/06/08 05:18:51;;;;;;;15.70;8.45;;;14.90;99.90;;;;;;4991567;28;20034;-43
2022/06/08 05:21:17;;;;;;;14.98;7.82;;;14.90;99.90;;;;;;4992120;28;20034;-49
2022/06/08 05:23:43;;;;;;;13.43;8.25;;;14.90;99.90;;;;;;4992499;28;20053;-48
2022/06/08 05:26:09;;;;;;;14.82;8.40;;;14.90;99.90;;;;;;4987512;28;20046;-43
2022/06/08 05:28:35;;;;;;;17.15;8.70;;;14.90;99.90;;;;;;4990373;28;20034;-50
2022/06/08 05:31:01;;;;;;;13.57;8.55;;;14.90;99.90;;;;;;4988401;28;20483;-50
2022/06/08 05:33:28;;;;;;;15.13;8.85;;;14.90;99.90;;;;;;4984180;28;20129;-47
2022/06/08 05:35:54;;;;;;;14.80;7.88;;;15.00;99.90;;;;;;4988455;28;20038;-45
2022/06/08 05:38:20;;;;;;;14.00;9.25;;;15.00;99.90;;;;;;4983879;28;20035;-49
2022/06/08 05:40:46;;;;;;;17.38;9.85;;;15.10;99.90;;;;;;4986219;28;20042;-50
2022/06/08 05:43:13;;;;;;;14.68;8.90;;;15.10;99.90;;;;;;4985194;28;20487;-47
2022/06/08 05:45:40;;;;;;;13.95;9.55;;;15.20;99.90;;;;;;4987754;28;20050;-46
2022/06/08 05:48:07;;;;;;;14.65;9.88;;;15.30;99.90;;;;;;4986255;28;20128;-50
2022/06/08 05:50:33;;;;;;;13.95;9.85;;;15.40;99.90;;;;;;4982690;28;20682;-43
2022/06/08 05:52:59;;;;;;;13.48;8.82;;;15.50;99.90;;;;;;4986092;28;20045;-49
2022/06/08 05:55:26;;;;;;;14.15;9.20;;;15.50;99.90;;;;;;4986428;28;20042;-48
2022/06/08 05:57:52;;;;;;;15.57;9.20;;;15.50;99.90;;;;;;4986602;28;20049;-49
2022/06/08 06:00:22;;;;;;;19.33;11.00;;;15.60;99.90;;;;;;4990977;28;20117;-48
2022/06/08 06:02:48;;;;;;;15.13;10.07;;;15.80;99.90;;;;;;4989414;28;20495;-47
2022/06/08 06:05:16;;;;;;;13.07;8.98;;;15.90;99.90;;;;;;4990920;28;20042;-45
2022/06/08 06:07:42;;;;;;;14.65;9.43;;;16.00;99.90;;;;;;4988418;28;20038;-49
2022/06/08 06:10:10;;;;;;;16.23;10.10;;;16.10;99.90;;;;;;4972220;28;20042;-48
2022/06/08 06:12:35;;;;;;;15.93;9.80;;;16.10;99.90;;;;;;4969250;28;20121;-47
2022/06/08 06:15:02;;;;;;;14.25;8.70;;;16.20;99.90;;;;;;4987020;28;20126;-46
2022/06/08 06:17:28;;;;;;;14.77;9.27;;;16.30;99.90;;;;;;4986602;28;20121;-45
2022/06/08 06:19:55;;;;;;;15.68;8.82;;;16.40;99.90;;;;;;4991382;28;20523;-47
2022/06/08 06:22:20;;;;;;;13.20;8.27;;;16.50;99.90;;;;;;4992158;28;20046;-50
2022/06/08 06:24:46;;;;;;;14.80;9.48;;;16.60;99.90;;;;;;4992007;28;20516;-49
2022/06/08 06:27:12;;;;;;;14.25;9.07;;;16.60;99.90;;;;;;4990827;28;20035;-50
2022/06/08 06:29:37;;;;;;;14.15;8.90;;;16.70;99.90;;;;;;4991905;28;20040;-48
2022/06/08 06:32:07;;;;;;;14.75;9.25;;;16.70;99.90;;;;;;4992372;28;20081;-49
2022/06/08 06:34:33;;;;;;;11.68;8.18;;;16.80;99.90;;;;;;5000242;28;20049;-50
2022/06/08 06:36:59;;;;;;;12.18;7.63;;;16.80;99.90;;;;;;4989137;28;20491;-50
2022/06/08 06:39:26;;;;;;;12.70;7.97;;;16.80;99.90;;;;;;4990780;28;20050;-50
2022/06/08 06:41:53;;;;;;;10.13;7.65;;;16.80;99.90;;;;;;4991268;28;20117;-49
2022/06/08 06:44:19;;;;;;;15.45;8.25;;;16.80;99.90;;;;;;4991483;28;20042;-45
2022/06/08 06:46:45;;;;;;;11.15;7.40;;;16.80;99.90;;;;;;4990952;28;20093;-46
2022/06/08 06:49:11;;;;;;;10.35;7.07;;;16.80;99.90;;;;;;4985002;28;20096;-48
2022/06/08 06:51:38;;;;;;;10.75;7.25;;;16.90;99.90;;;;;;4997872;28;20118;-49
2022/06/08 06:54:06;;;;;;;12.88;7.68;;;17.00;99.90;;;;;;4992226;28;20718;-46
2022/06/08 06:56:33;;;;;;;10.07;7.03;;;17.10;99.90;;;;;;4990863;28;20046;-48
2022/06/08 06:59:00;;;;;;;11.52;7.22;;;17.30;99.90;;;;;;4993760;28;20050;-49
2022/06/08 07:01:26;;;;;;;10.43;6.88;;;17.40;99.90;;;;;;4994243;28;20535;-45
2022/06/08 07:03:52;;;;;;;11.48;7.35;;;17.50;99.90;;;;;;4993506;28;20100;-49
2022/06/08 07:06:18;;;;;;;10.90;6.97;;;17.60;99.90;;;;;;4992650;28;20078;-48
2022/06/08 07:08:44;;;;;;;9.27;6.43;;;17.60;99.90;;;;;;4989344;28;20041;-48
2022/06/08 07:13:57;;;;;;;9.02;6.18;;;17.70;99.90;;;;;;4985763;28;20537;-51
2022/06/08 07:16:23;;;;;;;10.57;6.13;;;17.80;99.90;;;;;;4986119;28;20054;-49
2022/06/08 07:18:48;;;;;;;10.80;5.93;;;17.90;99.90;;;;;;4986929;28;20082;-50
2022/06/08 07:21:14;;;;;;;9.05;5.20;;;17.90;99.90;;;;;;4985858;28;20050;-45
2022/06/08 07:23:41;;;;;;;9.45;4.82;;;18.00;99.90;;;;;;4989345;28;20043;-49
2022/06/08 07:26:07;;;;;;;7.95;4.95;;;18.10;99.90;;;;;;4991237;28;20088;-49
2022/06/08 07:28:33;;;;;;;8.32;4.97;;;18.20;99.90;;;;;;4989704;28;20518;-47
2022/06/08 07:31:00;;;;;;;8.93;5.60;;;18.20;99.90;;;;;;4990167;28;20488;-50
2022/06/08 07:33:27;;;;;;;8.85;5.15;;;18.30;99.90;;;;;;4998864;28;20523;-47
2022/06/08 07:35:52;;;;;;;8.80;5.70;;;18.40;99.90;;;;;;4990487;28;20488;-47
2022/06/08 07:38:18;;;;;;;9.32;4.88;;;18.40;99.90;;;;;;4990083;28;20049;-46
2022/06/08 07:40:44;;;;;;;8.23;4.93;;;18.50;99.90;;;;;;4989241;28;20086;-48
2022/06/08 07:43:10;;;;;;;10.20;5.40;;;18.50;99.90;;;;;;4986827;28;20038;-50
2022/06/08 07:45:35;;;;;;;6.63;4.60;;;18.70;99.90;;;;;;4985960;28;20042;-47
2022/06/08 07:50:45;;;;;;;7.43;4.70;;;18.80;99.90;;;;;;4976539;28;20054;-44
2022/06/08 07:53:11;;;;;;;8.18;3.85;;;19.00;99.90;;;;;;4988055;28;20537;-47
2022/06/08 07:55:37;;;;;;;6.90;4.35;;;19.00;99.90;;;;;;4989119;28;20082;-48
2022/06/08 07:58:03;;;;;;;7.22;4.50;;;19.10;99.90;;;;;;4990007;28;20492;-50
2022/06/08 08:00:29;;;;;;;6.57;4.38;;;19.10;99.90;;;;;;4989759;28;20057;-50
2022/06/08 08:02:56;;;;;;;11.30;4.60;;;19.10;99.90;;;;;;4986813;28;20042;-48
2022/06/08 08:05:22;;;;;;;7.50;4.85;;;19.10;99.90;;;;;;4989380;28;20065;-50
2022/06/08 08:07:49;;;;;;;7.10;4.97;;;19.10;99.90;;;;;;4989980;28;20038;-49
2022/06/08 08:10:22;;;;;;;6.95;4.47;;;19.20;99.90;;;;;;4987224;28;20512;-46
2022/06/08 08:12:48;;;;;;;7.45;4.40;;;19.20;99.90;;;;;;4949395;28;1121670;-50
2022/06/08 08:15:16;;;;;;;7.05;4.50;;;19.30;99.90;;;;;;4988343;28;20457;-46
2022/06/08 08:17:42;;;;;;;6.43;4.20;;;19.40;99.90;;;;;;4988879;28;20325;-49
2022/06/08 08:20:12;;;;;;;8.20;4.82;;;19.50;99.90;;;;;;4989610;28;20046;-48
2022/06/08 08:22:38;;;;;;;7.78;4.40;;;19.70;99.90;;;;;;4984337;28;20444;-45
2022/06/08 08:25:04;;;;;;;7.22;4.72;;;19.80;99.90;;;;;;4987738;28;20168;-46
2022/06/08 08:27:29;;;;;;;7.53;4.50;;;20.00;99.90;;;;;;4985698;28;20034;-49
2022/06/08 08:29:55;;;;;;;6.18;3.28;;;20.10;99.90;;;;;;4988428;28;20069;-49
2022/06/08 08:32:20;;;;;;;6.72;3.80;;;20.20;99.90;;;;;;4988591;28;20062;-48
2022/06/08 08:34:46;;;;;;;5.63;3.17;;;20.30;99.20;;;;;;4990811;28;20045;-49
2022/06/08 08:37:12;;;;;;;5.82;3.40;;;20.30;99.40;;;;;;4990728;28;20172;-48
2022/06/08 08:39:38;;;;;;;4.93;2.95;;;20.40;98.90;;;;;;4988597;28;20044;-50
2022/06/08 08:42:20;;;;;;;4.63;2.50;;;20.40;98.70;;;;;;4987839;28;20042;-47
2022/06/08 08:44:59;;;;;;;6.10;3.25;;;20.50;98.50;;;;;;4990223;28;20066;-44
2022/06/08 08:47:43;;;;;;;4.88;3.03;;;20.60;97.90;;;;;;4988938;28;20041;-48
2022/06/08 08:50:22;;;;;;;8.93;3.63;;;20.60;98.70;;;;;;4987968;28;20117;-48
2022/06/08 08:53:01;;;;;;;5.55;2.88;;;20.70;97.00;;;;;;4981935;28;20035;-48
2022/06/08 08:55:36;;;;;;;5.07;2.60;;;20.70;97.70;;;;;;4990444;28;20042;-48
2022/06/08 08:58:04;;;;;;;4.47;2.50;;;20.70;97.00;;;;;;4993426;28;20463;-44
2022/06/08 09:00:41;;;;;;;5.38;2.80;;;20.80;97.40;;;;;;4993294;28;20088;-47
2022/06/08 09:03:25;;;;;;;5.15;3.50;;;20.70;96.50;;;;;;4992059;28;20109;-56
2022/06/08 09:05:54;;;;;;;4.97;3.30;;;20.70;96.30;;;;;;4988318;28;20046;-49
2022/06/08 09:08:23;;;;;;;3.53;2.53;;;20.80;96.10;;;;;;4988818;28;20061;-49
2022/06/08 09:10:50;;;;;;;3.83;2.45;;;20.80;95.80;;;;;;4985780;28;20035;-48
2022/06/08 09:13:36;;;;;;;3.92;2.45;;;20.90;94.70;;;;;;4990124;28;20058;-49
2022/06/08 09:16:02;;;;;;;4.00;2.53;;;21.00;94.80;;;;;;4993350;28;20144;-47
2022/06/08 09:18:30;;;;;;;6.22;2.58;;;21.00;94.30;;;;;;4988565;28;20078;-48
2022/06/08 09:20:57;;;;;;;4.97;1.80;;;21.00;94.20;;;;;;4990796;28;20131;-48
2022/06/08 09:23:40;;;;;;;3.17;1.90;;;20.90;92.90;;;;;;4990181;28;20384;-51
2022/06/08 09:26:14;;;;;;;3.33;1.60;;;20.80;93.10;;;;;;4989870;28;20487;-50
2022/06/08 09:28:41;;;;;;;3.92;1.83;;;20.90;93.40;;;;;;4988540;28;20034;-48
2022/06/08 09:31:24;;;;;;;3.65;2.38;;;20.90;93.20;;;;;;4988215;28;20092;-49
2022/06/08 09:34:02;;;;;;;4.28;2.30;;;21.00;93.80;;;;;;4983352;28;20038;-47
2022/06/08 09:36:28;;;;;;;5.40;2.50;;;21.00;94.00;;;;;;4985615;28;20453;-50
2022/06/08 09:38:54;;;;;;;3.25;2.20;;;21.00;93.30;;;;;;4975986;28;20041;-48
2022/06/08 09:41:28;;;;;;;4.88;2.85;;;20.90;93.10;;;;;;4987540;28;20043;-49
2022/06/08 09:44:16;;;;;;;4.80;2.58;;;20.80;93.50;;;;;;4986554;28;20030;-50
2022/06/08 09:53:01;;;;;;;4.78;2.85;;;20.30;94.80;;;;;;4987838;28;20129;-49
2022/06/08 09:55:47;;;;;;;8.07;3.70;;;20.30;94.90;;;;;;4983359;28;20192;-44
2022/06/08 09:58:54;;;;;;;4.70;3.40;;;20.20;95.60;;;;;;4986622;28;20069;-50
2022/06/08 10:01:40;;;;;;;4.05;2.63;;;20.20;96.30;;;;;;4939022;28;20087;-51
2022/06/08 10:04:18;;;;;;;4.72;2.33;;;20.30;96.40;;;;;;4982872;28;20081;-48
2022/06/08 10:06:58;;;;;;;5.70;3.03;;;20.30;96.30;;;;;;4989062;28;20086;-49
2022/06/08 10:09:29;;;;;;;5.82;3.50;;;20.40;97.00;;;;;;4989621;28;20030;-50
2022/06/08 10:12:36;;;;;;;8.75;3.33;;;20.50;96.50;;;;;;4984870;28;20046;-48
2022/06/08 10:15:16;;;;;;;7.00;2.65;;;20.50;96.30;;;;;;4985480;28;20124;-49
2022/06/08 10:17:50;;;;;;;5.57;2.63;;;20.60;95.90;;;;;;4988273;28;20057;-49
2022/06/08 10:20:24;;;;;;;5.13;2.72;;;20.60;95.70;;;;;;4986619;28;20053;-49
2022/06/08 10:22:55;;;;;;;5.50;2.65;;;20.70;95.70;;;;;;4984790;28;20043;-47
2022/06/08 10:25:38;;;;;;;6.75;3.03;;;20.70;95.30;;;;;;4985557;28;20042;-49
2022/06/08 10:28:46;;;;;;;7.25;3.50;;;20.60;94.50;;;;;;4988291;28;20568;-50
2022/06/08 10:31:41;;;;;;;6.50;3.22;;;20.50;96.10;;;;;;4983800;28;20068;-47
2022/06/08 10:34:23;;;;;;;5.43;3.00;;;20.40;96.20;;;;;;4986345;28;20124;-49
2022/06/08 10:36:51;;;;;;;7.07;3.47;;;20.40;96.90;;;;;;4986415;28;20061;-46
2022/06/08 10:39:18;;;;;;;4.90;3.10;;;20.40;97.40;;;;;;4983922;28;20526;-45
2022/06/08 10:45:23;;;;;;;6.90;3.28;;;20.60;97.00;;;;;;4987140;28;20046;-49
2022/06/08 10:47:59;;;;;;;5.95;2.92;;;20.70;96.90;;;;;;4989515;28;20038;-50
2022/06/08 10:50:34;;;;;;;5.90;3.42;;;20.90;96.90;;;;;;4980878;28;20046;-49
2022/06/08 10:56:35;;;;;;;7.00;3.13;;;21.20;95.30;;;;;;4986703;28;20118;-50
2022/06/08 10:59:04;;;;;;;6.20;2.50;;;21.30;94.90;;;;;;4996246;28;20459;-44
2022/06/08 11:01:36;;;;;;;5.68;3.25;;;21.20;94.70;;;;;;4983222;28;20053;-46
2022/06/08 11:04:06;;;;;;;4.25;2.63;;;20.90;94.70;;;;;;4981541;28;20139;-49
2022/06/08 11:06:57;;;;;;;16.05;1.98;;;20.70;95.90;;;;;;4988690;28;20070;-51
2022/06/08 11:09:35;;;;;;;8.07;1.30;;;20.20;98.40;;;;;;4989904;28;20113;-47
2022/06/08 11:12:11;;;;;;;5.20;0.82;;;19.40;99.90;;;;;;4986907;28;20127;-48
2022/06/08 11:14:51;;;;;;;4.90;1.17;;;18.80;99.90;;;;;;4987553;28;20148;-44
2022/06/08 11:17:40;;;;;;;4.55;1.00;;;18.40;99.90;;;;;;4989636;28;20089;-41
2022/06/08 11:20:47;;;;;;;4.35;1.00;;;17.90;99.90;;;;;;4996863;28;20469;-43
2022/06/08 11:23:29;;;;;;;2.97;0.80;;;17.60;99.90;;;;;;4982694;28;20042;-42
2022/06/08 11:26:07;;;;;;;5.65;1.10;;;17.50;99.90;;;;;;4989934;28;20041;-43
2022/06/08 11:28:39;;;;;;;3.72;1.35;;;17.40;99.90;;;;;;4990837;28;20070;-46
2022/06/08 11:31:11;;;;;;;2.72;1.27;;;17.40;99.90;;;;;;4992304;28;20065;-43
2022/06/08 11:34:06;;;;;;;5.75;1.58;;;17.50;99.90;;;;;;4990911;28;20046;-42
2022/06/08 11:36:38;;;;;;;4.07;1.50;;;17.50;99.90;;;;;;4987867;28;20038;-43
2022/06/08 11:39:15;;;;;;;6.32;1.75;;;17.50;99.90;;;;;;4992109;28;20061;-43
2022/06/08 11:41:42;;;;;;;3.70;2.00;;;17.60;99.90;;;;;;4988597;28;20652;-43
2022/06/08 11:44:20;;;;;;;5.63;2.20;;;17.70;99.90;;;;;;4988545;28;20073;-40
2022/06/08 11:46:53;;;;;;;6.60;2.97;;;17.70;99.90;;;;;;4998099;28;20517;-45
2022/06/08 11:49:53;;;;;;;6.20;2.40;;;17.70;99.90;;;;;;4988606;28;20122;-43
2022/06/08 11:52:25;;;;;;;6.22;2.90;;;17.70;99.90;;;;;;4992479;28;20101;-43
2022/06/08 11:55:09;;;;;;;3.75;2.38;;;17.70;99.90;;;;;;4997854;28;20046;-43
2022/06/08 11:57:39;;;;;;;6.88;3.20;;;17.80;99.90;;;;;;4991231;28;20078;-43
2022/06/08 12:00:15;;;;;;;6.60;2.80;;;17.80;99.90;;;;;;4983360;28;20066;-42
2022/06/08 12:02:41;;;;;;;6.18;3.00;;;17.90;99.90;;;;;;4991060;28;20547;-42
2022/06/08 12:05:07;;;;;;;8.45;3.75;;;18.00;99.90;;;;;;4986213;28;20133;-44
2022/06/08 12:07:42;;;;;;;7.60;3.50;;;18.10;99.90;;;;;;4987887;28;20130;-42
2022/06/08 12:10:14;;;;;;;5.88;3.47;;;18.20;99.90;;;;;;4985716;28;20030;-44
2022/06/08 12:12:44;;;;;;;8.07;3.65;;;18.30;99.90;;;;;;4985282;28;20145;-42
2022/06/08 12:15:39;;;;;;;4.45;3.45;;;18.40;99.90;;;;;;4992525;28;20054;-42
2022/06/08 12:18:28;;;;;;;5.35;3.55;;;18.50;99.90;;;;;;4989162;28;20064;-40
2022/06/08 12:21:09;;;;;;;7.55;2.70;;;18.70;99.90;;;;;;4988359;28;20038;-43
2022/06/08 12:23:56;;;;;;;7.80;2.38;;;18.70;99.90;;;;;;4985562;28;20042;-42
2022/06/08 12:26:25;;;;;;;4.82;2.30;;;18.80;99.90;;;;;;4988381;28;20038;-43
2022/06/08 12:29:11;;;;;;;7.47;2.33;;;18.80;99.90;;;;;;4988217;28;20068;-43
2022/06/08 12:31:37;;;;;;;3.67;1.88;;;18.80;99.90;;;;;;4989219;28;20062;-44
2022/06/08 12:34:34;;;;;;;6.20;2.40;;;18.80;99.90;;;;;;4992059;28;20042;-41
2022/06/08 12:37:28;;;;;;;8.77;2.53;;;18.90;99.90;;;;;;4965602;28;20050;-41
2022/06/08 12:40:18;;;;;;;6.35;2.08;;;18.90;99.90;;;;;;4990986;28;20492;-40
2022/06/08 12:43:06;;;;;;;5.70;2.33;;;19.00;99.90;;;;;;4987598;28;20059;-43
2022/06/08 12:45:43;;;;;;;6.72;2.25;;;19.20;99.90;;;;;;4990086;28;20069;-42
2022/06/08 12:48:29;;;;;;;4.75;2.10;;;19.20;99.90;;;;;;4986528;28;20049;-43
2022/06/08 12:50:56;;;;;;;6.32;2.75;;;19.20;99.90;;;;;;4991209;28;20049;-44
2022/06/08 12:53:23;;;;;;;8.10;2.35;;;19.30;99.90;;;;;;4987926;28;20124;-42
2022/06/08 12:55:52;;;;;;;5.88;2.40;;;19.40;99.90;;;;;;4987393;28;20503;-42
2022/06/08 12:58:19;;;;;;;7.55;2.25;;;19.40;99.90;;;;;;4985096;28;20427;-44
2022/06/08 13:00:53;;;;;;;8.63;2.20;;;19.50;99.90;;;;;;4993765;28;20038;-44
2022/06/08 13:03:27;;;;;;;5.90;2.60;;;19.60;99.90;;;;;;4990295;28;20053;-43
2022/06/08 13:05:54;;;;;;;5.05;2.15;;;19.70;99.90;;;;;;4994928;28;20046;-43
2022/06/08 13:08:23;;;;;;;6.43;2.30;;;19.60;99.90;;;;;;4992280;28;20205;-44
2022/06/08 13:10:51;;;;;;;3.80;1.92;;;19.60;99.90;;;;;;4988244;28;20030;-45
2022/06/08 13:13:25;;;;;;;5.88;2.50;;;19.60;99.90;;;;;;4992395;28;20495;-42
2022/06/08 13:15:51;;;;;;;6.78;1.92;;;19.50;99.90;;;;;;4989872;28;20037;-47
2022/06/08 13:18:20;;;;;;;4.43;1.73;;;19.50;99.90;;;;;;4990481;28;20038;-43
2022/06/08 13:20:47;;;;;;;5.05;2.05;;;19.60;99.90;;;;;;4991389;28;20044;-47
2022/06/08 13:23:14;;;;;;;6.68;1.00;;;19.60;99.90;;;;;;4989345;28;20057;-44
2022/06/08 13:25:42;;;;;;;2.10;0.93;;;19.60;99.90;;;;;;4981222;28;20042;-44
2022/06/08 13:28:20;;;;;;;3.17;1.13;;;19.50;99.90;;;;;;4988715;28;20587;-43
2022/06/08 13:30:50;;;;;;;2.53;0.75;;;19.40;99.90;;;;;;4993326;28;20034;-43
2022/06/08 13:36:16;;;;;;;4.28;0.60;;;19.30;99.90;;;;;;4987733;28;20054;-43